sensor_id;sensor_type;location;lat;lon;timestamp;P1;durP1;ratioP1;P2;durP2;ratioP2
8100;SDS011;4093;53.470;9.832;2023-12-20T00:02:00;13.00;;;3.33;;
8100;SDS011;4093;53.470;9.832;2023-12-20T00:04:28;10.17;;;3.40;;
8100;SDS011;4093;53.470;9.832;2023-12-20T00:06:56;16.70;;;3.23;;
8100;SDS011;4093;53.470;9.832;2023-12-20T00:09:24;11.37;;;3.20;;
8100;SDS011;4093;53.470;9.832;2023-12-20T00:11:52;13.80;;;4.27;;
8100;SDS011;4093;53.470;9.832;2023-12-20T00:14:21;21.43;;;3.70;;
8100;SDS011;4093;53.470;9.832;2023-12-20T00:16:48;12.80;;;3.57;;
8100;SDS011;4093;53.470;9.832;2023-12-20T00:19:16;16.07;;;2.80;;
8100;SDS011;4093;53.470;9.832;2023-12-20T00:21:44;13.37;;;3.13;;
8100;SDS011;4093;53.470;9.832;2023-12-20T00:24:12;11.90;;;2.97;;
8100;SDS011;4093;53.470;9.832;2023-12-20T00:26:39;11.20;;;2.80;;
8100;SDS011;4093;53.470;9.832;2023-12-20T00:29:07;14.10;;;3.70;;
8100;SDS011;4093;53.470;9.832;2023-12-20T00:31:36;13.10;;;3.60;;
8100;SDS011;4093;53.470;9.832;2023-12-20T00:34:04;17.00;;;3.50;;
8100;SDS011;4093;53.470;9.832;2023-12-20T00:36:32;16.30;;;3.30;;
8100;SDS011;4093;53.470;9.832;2023-12-20T00:39:00;12.43;;;3.10;;
8100;SDS011;4093;53.470;9.832;2023-12-20T00:41:27;14.40;;;3.53;;
8100;SDS011;4093;53.470;9.832;2023-12-20T00:43:55;16.53;;;3.43;;
8100;SDS011;4093;53.470;9.832;2023-12-20T00:46:23;17.17;;;3.57;;
8100;SDS011;4093;53.470;9.832;2023-12-20T00:48:52;17.03;;;3.43;;
8100;SDS011;4093;53.470;9.832;2023-12-20T00:51:19;20.03;;;3.70;;
8100;SDS011;4093;53.470;9.832;2023-12-20T00:53:49;17.13;;;3.77;;
8100;SDS011;4093;53.470;9.832;2023-12-20T00:56:20;9.20;;;3.17;;
8100;SDS011;4093;53.470;9.832;2023-12-20T00:58:48;15.10;;;3.37;;
8100;SDS011;4093;53.470;9.832;2023-12-20T01:01:16;13.80;;;2.90;;
8100;SDS011;4093;53.470;9.832;2023-12-20T01:03:44;17.00;;;4.33;;
8100;SDS011;4093;53.470;9.832;2023-12-20T01:06:13;13.20;;;3.30;;
8100;SDS011;4093;53.470;9.832;2023-12-20T01:08:42;14.40;;;3.47;;
8100;SDS011;4093;53.470;9.832;2023-12-20T01:11:10;11.63;;;3.10;;
8100;SDS011;4093;53.470;9.832;2023-12-20T01:13:37;14.87;;;3.43;;
8100;SDS011;4093;53.470;9.832;2023-12-20T01:16:05;11.57;;;3.37;;
8100;SDS011;4093;53.470;9.832;2023-12-20T01:18:33;16.80;;;3.90;;
8100;SDS011;4093;53.470;9.832;2023-12-20T01:21:01;19.57;;;4.10;;
8100;SDS011;4093;53.470;9.832;2023-12-20T01:23:31;15.60;;;3.10;;
8100;SDS011;4093;53.470;9.832;2023-12-20T01:25:59;9.50;;;3.10;;
8100;SDS011;4093;53.470;9.832;2023-12-20T01:28:27;15.17;;;3.50;;
8100;SDS011;4093;53.470;9.832;2023-12-20T01:30:54;10.13;;;3.53;;
8100;SDS011;4093;53.470;9.832;2023-12-20T01:33:22;18.20;;;3.53;;
8100;SDS011;4093;53.470;9.832;2023-12-20T01:35:50;15.33;;;3.70;;
8100;SDS011;4093;53.470;9.832;2023-12-20T01:38:16;11.47;;;3.43;;
8100;SDS011;4093;53.470;9.832;2023-12-20T01:40:47;11.97;;;3.73;;
8100;SDS011;4093;53.470;9.832;2023-12-20T01:43:15;9.80;;;2.83;;
8100;SDS011;4093;53.470;9.832;2023-12-20T01:45:43;11.53;;;2.70;;
8100;SDS011;4093;53.470;9.832;2023-12-20T01:48:10;13.20;;;3.07;;
8100;SDS011;4093;53.470;9.832;2023-12-20T01:50:38;10.63;;;4.23;;
8100;SDS011;4093;53.470;9.832;2023-12-20T01:53:07;10.70;;;3.30;;
8100;SDS011;4093;53.470;9.832;2023-12-20T01:55:38;16.20;;;3.10;;
8100;SDS011;4093;53.470;9.832;2023-12-20T01:58:09;16.13;;;3.60;;
8100;SDS011;4093;53.470;9.832;2023-12-20T02:00:37;8.43;;;3.27;;
8100;SDS011;4093;53.470;9.832;2023-12-20T02:03:06;18.07;;;3.10;;
8100;SDS011;4093;53.470;9.832;2023-12-20T02:05:34;15.07;;;3.73;;
8100;SDS011;4093;53.470;9.832;2023-12-20T02:08:03;14.00;;;3.13;;
8100;SDS011;4093;53.470;9.832;2023-12-20T02:10:32;18.33;;;3.60;;
8100;SDS011;4093;53.470;9.832;2023-12-20T02:12:59;9.57;;;3.13;;
8100;SDS011;4093;53.470;9.832;2023-12-20T02:15:28;15.13;;;3.07;;
8100;SDS011;4093;53.470;9.832;2023-12-20T02:17:56;12.60;;;3.87;;
8100;SDS011;4093;53.470;9.832;2023-12-20T02:20:24;12.67;;;3.30;;
8100;SDS011;4093;53.470;9.832;2023-12-20T02:22:53;16.23;;;3.60;;
8100;SDS011;4093;53.470;9.832;2023-12-20T02:25:21;11.50;;;3.23;;
8100;SDS011;4093;53.470;9.832;2023-12-20T02:27:49;12.03;;;3.40;;
8100;SDS011;4093;53.470;9.832;2023-12-20T02:30:18;9.73;;;3.13;;
8100;SDS011;4093;53.470;9.832;2023-12-20T02:32:45;11.00;;;3.50;;
8100;SDS011;4093;53.470;9.832;2023-12-20T02:35:13;15.83;;;3.67;;
8100;SDS011;4093;53.470;9.832;2023-12-20T02:37:41;12.93;;;3.10;;
8100;SDS011;4093;53.470;9.832;2023-12-20T02:40:11;12.77;;;3.53;;
8100;SDS011;4093;53.470;9.832;2023-12-20T02:42:39;13.90;;;3.30;;
8100;SDS011;4093;53.470;9.832;2023-12-20T02:45:07;15.60;;;3.60;;
8100;SDS011;4093;53.470;9.832;2023-12-20T02:47:35;18.07;;;3.77;;
8100;SDS011;4093;53.470;9.832;2023-12-20T02:50:03;17.30;;;3.30;;
8100;SDS011;4093;53.470;9.832;2023-12-20T02:52:31;14.93;;;3.90;;
8100;SDS011;4093;53.470;9.832;2023-12-20T02:54:58;11.40;;;3.93;;
8100;SDS011;4093;53.470;9.832;2023-12-20T02:57:28;17.20;;;3.57;;
8100;SDS011;4093;53.470;9.832;2023-12-20T02:59:55;8.20;;;3.57;;
8100;SDS011;4093;53.470;9.832;2023-12-20T03:02:23;16.17;;;3.60;;
8100;SDS011;4093;53.470;9.832;2023-12-20T03:04:50;13.27;;;3.17;;
8100;SDS011;4093;53.470;9.832;2023-12-20T03:07:18;7.87;;;3.20;;
8100;SDS011;4093;53.470;9.832;2023-12-20T03:09:46;9.43;;;3.23;;
8100;SDS011;4093;53.470;9.832;2023-12-20T03:12:35;9.23;;;3.13;;
8100;SDS011;4093;53.470;9.832;2023-12-20T03:15:03;12.93;;;4.10;;
8100;SDS011;4093;53.470;9.832;2023-12-20T03:17:31;13.43;;;3.00;;
8100;SDS011;4093;53.470;9.832;2023-12-20T03:19:59;9.97;;;3.23;;
8100;SDS011;4093;53.470;9.832;2023-12-20T03:22:27;10.17;;;3.00;;
8100;SDS011;4093;53.470;9.832;2023-12-20T03:24:55;13.23;;;3.20;;
8100;SDS011;4093;53.470;9.832;2023-12-20T03:27:23;12.33;;;3.20;;
8100;SDS011;4093;53.470;9.832;2023-12-20T03:29:52;13.43;;;3.13;;
8100;SDS011;4093;53.470;9.832;2023-12-20T03:32:20;13.00;;;3.20;;
8100;SDS011;4093;53.470;9.832;2023-12-20T03:34:47;11.47;;;3.10;;
8100;SDS011;4093;53.470;9.832;2023-12-20T03:37:15;12.23;;;3.33;;
8100;SDS011;4093;53.470;9.832;2023-12-20T03:39:43;12.43;;;3.30;;
8100;SDS011;4093;53.470;9.832;2023-12-20T03:42:11;11.90;;;3.20;;
8100;SDS011;4093;53.470;9.832;2023-12-20T03:44:39;11.83;;;3.07;;
8100;SDS011;4093;53.470;9.832;2023-12-20T03:47:08;14.67;;;3.30;;
8100;SDS011;4093;53.470;9.832;2023-12-20T03:49:36;10.47;;;3.00;;
8100;SDS011;4093;53.470;9.832;2023-12-20T03:52:05;13.83;;;3.00;;
8100;SDS011;4093;53.470;9.832;2023-12-20T03:54:33;12.23;;;3.20;;
8100;SDS011;4093;53.470;9.832;2023-12-20T03:57:02;12.83;;;3.50;;
8100;SDS011;4093;53.470;9.832;2023-12-20T03:59:34;11.27;;;3.90;;
8100;SDS011;4093;53.470;9.832;2023-12-20T04:02:02;13.47;;;3.20;;
8100;SDS011;4093;53.470;9.832;2023-12-20T04:04:31;12.60;;;3.37;;
8100;SDS011;4093;53.470;9.832;2023-12-20T04:06:59;11.97;;;3.10;;
8100;SDS011;4093;53.470;9.832;2023-12-20T04:09:27;11.10;;;3.13;;
8100;SDS011;4093;53.470;9.832;2023-12-20T04:11:54;15.73;;;3.80;;
8100;SDS011;4093;53.470;9.832;2023-12-20T04:14:43;8.77;;;3.20;;
8100;SDS011;4093;53.470;9.832;2023-12-20T04:17:10;8.47;;;3.00;;
8100;SDS011;4093;53.470;9.832;2023-12-20T04:19:39;14.87;;;3.43;;
8100;SDS011;4093;53.470;9.832;2023-12-20T04:22:07;9.43;;;3.47;;
8100;SDS011;4093;53.470;9.832;2023-12-20T04:24:35;13.37;;;3.90;;
8100;SDS011;4093;53.470;9.832;2023-12-20T04:27:03;15.27;;;3.20;;
8100;SDS011;4093;53.470;9.832;2023-12-20T04:29:31;13.27;;;3.30;;
8100;SDS011;4093;53.470;9.832;2023-12-20T04:31:58;12.40;;;3.30;;
8100;SDS011;4093;53.470;9.832;2023-12-20T04:34:26;13.67;;;3.47;;
8100;SDS011;4093;53.470;9.832;2023-12-20T04:36:56;9.97;;;3.87;;
8100;SDS011;4093;53.470;9.832;2023-12-20T04:39:28;14.67;;;4.20;;
8100;SDS011;4093;53.470;9.832;2023-12-20T04:41:55;14.07;;;4.20;;
8100;SDS011;4093;53.470;9.832;2023-12-20T04:44:23;11.83;;;3.63;;
8100;SDS011;4093;53.470;9.832;2023-12-20T04:46:51;17.53;;;3.90;;
8100;SDS011;4093;53.470;9.832;2023-12-20T04:49:18;14.53;;;4.07;;
8100;SDS011;4093;53.470;9.832;2023-12-20T04:51:46;13.97;;;3.70;;
8100;SDS011;4093;53.470;9.832;2023-12-20T04:54:15;15.23;;;4.00;;
8100;SDS011;4093;53.470;9.832;2023-12-20T04:56:43;14.37;;;4.10;;
8100;SDS011;4093;53.470;9.832;2023-12-20T04:59:11;18.63;;;4.30;;
8100;SDS011;4093;53.470;9.832;2023-12-20T05:01:39;16.00;;;4.33;;
8100;SDS011;4093;53.470;9.832;2023-12-20T05:04:07;12.23;;;3.93;;
8100;SDS011;4093;53.470;9.832;2023-12-20T05:06:35;15.23;;;3.93;;
8100;SDS011;4093;53.470;9.832;2023-12-20T05:09:02;13.70;;;4.33;;
8100;SDS011;4093;53.470;9.832;2023-12-20T05:11:32;20.33;;;4.60;;
8100;SDS011;4093;53.470;9.832;2023-12-20T05:13:59;18.80;;;4.17;;
8100;SDS011;4093;53.470;9.832;2023-12-20T05:16:27;17.93;;;3.93;;
8100;SDS011;4093;53.470;9.832;2023-12-20T05:18:55;14.50;;;4.23;;
8100;SDS011;4093;53.470;9.832;2023-12-20T05:21:23;14.90;;;4.23;;
8100;SDS011;4093;53.470;9.832;2023-12-20T05:23:50;17.40;;;4.13;;
8100;SDS011;4093;53.470;9.832;2023-12-20T05:26:18;9.10;;;4.20;;
8100;SDS011;4093;53.470;9.832;2023-12-20T05:28:47;15.83;;;3.53;;
8100;SDS011;4093;53.470;9.832;2023-12-20T05:31:15;17.30;;;3.70;;
8100;SDS011;4093;53.470;9.832;2023-12-20T05:33:42;16.47;;;4.33;;
8100;SDS011;4093;53.470;9.832;2023-12-20T05:36:10;13.47;;;5.27;;
8100;SDS011;4093;53.470;9.832;2023-12-20T05:38:40;14.83;;;4.30;;
8100;SDS011;4093;53.470;9.832;2023-12-20T05:41:08;21.20;;;4.33;;
8100;SDS011;4093;53.470;9.832;2023-12-20T05:43:35;13.07;;;3.90;;
8100;SDS011;4093;53.470;9.832;2023-12-20T05:46:04;15.83;;;4.03;;
8100;SDS011;4093;53.470;9.832;2023-12-20T05:48:32;14.57;;;4.47;;
8100;SDS011;4093;53.470;9.832;2023-12-20T05:51:00;13.50;;;4.20;;
8100;SDS011;4093;53.470;9.832;2023-12-20T05:53:28;13.03;;;4.03;;
8100;SDS011;4093;53.470;9.832;2023-12-20T05:55:55;15.10;;;4.53;;
8100;SDS011;4093;53.470;9.832;2023-12-20T05:58:23;12.27;;;4.20;;
8100;SDS011;4093;53.470;9.832;2023-12-20T06:00:51;15.03;;;4.10;;
8100;SDS011;4093;53.470;9.832;2023-12-20T06:03:20;12.70;;;3.57;;
8100;SDS011;4093;53.470;9.832;2023-12-20T06:05:48;10.13;;;3.60;;
8100;SDS011;4093;53.470;9.832;2023-12-20T06:08:18;12.63;;;4.23;;
8100;SDS011;4093;53.470;9.832;2023-12-20T06:10:45;16.47;;;4.43;;
8100;SDS011;4093;53.470;9.832;2023-12-20T06:13:13;13.30;;;4.17;;
8100;SDS011;4093;53.470;9.832;2023-12-20T06:15:41;17.47;;;4.50;;
8100;SDS011;4093;53.470;9.832;2023-12-20T06:18:08;18.63;;;4.43;;
8100;SDS011;4093;53.470;9.832;2023-12-20T06:20:37;11.60;;;4.23;;
8100;SDS011;4093;53.470;9.832;2023-12-20T06:23:05;10.90;;;3.83;;
8100;SDS011;4093;53.470;9.832;2023-12-20T06:25:33;20.90;;;4.33;;
8100;SDS011;4093;53.470;9.832;2023-12-20T06:28:00;13.70;;;3.77;;
8100;SDS011;4093;53.470;9.832;2023-12-20T06:30:28;14.30;;;3.93;;
8100;SDS011;4093;53.470;9.832;2023-12-20T06:32:56;19.17;;;4.37;;
8100;SDS011;4093;53.470;9.832;2023-12-20T06:35:24;13.10;;;3.63;;
8100;SDS011;4093;53.470;9.832;2023-12-20T06:37:53;15.73;;;4.23;;
8100;SDS011;4093;53.470;9.832;2023-12-20T06:40:21;13.47;;;3.83;;
8100;SDS011;4093;53.470;9.832;2023-12-20T06:42:49;14.23;;;4.07;;
8100;SDS011;4093;53.470;9.832;2023-12-20T06:45:31;10.40;;;3.50;;
8100;SDS011;4093;53.470;9.832;2023-12-20T06:47:59;17.27;;;4.37;;
8100;SDS011;4093;53.470;9.832;2023-12-20T06:50:27;14.97;;;4.23;;
8100;SDS011;4093;53.470;9.832;2023-12-20T06:52:56;12.90;;;3.57;;
8100;SDS011;4093;53.470;9.832;2023-12-20T06:55:24;15.53;;;4.70;;
8100;SDS011;4093;53.470;9.832;2023-12-20T06:57:52;22.97;;;4.27;;
8100;SDS011;4093;53.470;9.832;2023-12-20T07:00:20;11.63;;;4.70;;
8100;SDS011;4093;53.470;9.832;2023-12-20T07:02:47;14.60;;;3.77;;
8100;SDS011;4093;53.470;9.832;2023-12-20T07:05:16;14.30;;;3.80;;
8100;SDS011;4093;53.470;9.832;2023-12-20T07:07:46;14.13;;;3.83;;
8100;SDS011;4093;53.470;9.832;2023-12-20T07:10:16;16.70;;;4.10;;
8100;SDS011;4093;53.470;9.832;2023-12-20T07:12:44;21.03;;;4.77;;
8100;SDS011;4093;53.470;9.832;2023-12-20T07:15:12;17.10;;;4.40;;
8100;SDS011;4093;53.470;9.832;2023-12-20T07:17:39;20.93;;;5.10;;
8100;SDS011;4093;53.470;9.832;2023-12-20T07:20:08;19.63;;;4.03;;
8100;SDS011;4093;53.470;9.832;2023-12-20T07:22:37;12.87;;;4.50;;
8100;SDS011;4093;53.470;9.832;2023-12-20T07:25:06;18.33;;;4.40;;
8100;SDS011;4093;53.470;9.832;2023-12-20T07:27:35;22.87;;;4.93;;
8100;SDS011;4093;53.470;9.832;2023-12-20T07:30:03;18.10;;;4.23;;
8100;SDS011;4093;53.470;9.832;2023-12-20T07:32:32;21.93;;;4.60;;
8100;SDS011;4093;53.470;9.832;2023-12-20T07:34:59;19.33;;;5.90;;
8100;SDS011;4093;53.470;9.832;2023-12-20T07:37:27;17.17;;;4.23;;
8100;SDS011;4093;53.470;9.832;2023-12-20T07:39:55;14.77;;;4.20;;
8100;SDS011;4093;53.470;9.832;2023-12-20T07:42:23;13.67;;;4.43;;
8100;SDS011;4093;53.470;9.832;2023-12-20T07:44:52;20.17;;;5.00;;
8100;SDS011;4093;53.470;9.832;2023-12-20T07:47:20;16.20;;;4.00;;
8100;SDS011;4093;53.470;9.832;2023-12-20T07:49:48;16.20;;;4.07;;
8100;SDS011;4093;53.470;9.832;2023-12-20T07:52:17;17.67;;;4.00;;
8100;SDS011;4093;53.470;9.832;2023-12-20T07:54:45;14.47;;;4.67;;
8100;SDS011;4093;53.470;9.832;2023-12-20T07:57:13;18.13;;;4.30;;
8100;SDS011;4093;53.470;9.832;2023-12-20T07:59:41;17.23;;;4.43;;
8100;SDS011;4093;53.470;9.832;2023-12-20T08:02:12;15.97;;;4.23;;
8100;SDS011;4093;53.470;9.832;2023-12-20T08:04:40;17.33;;;4.57;;
8100;SDS011;4093;53.470;9.832;2023-12-20T08:07:08;21.50;;;5.13;;
8100;SDS011;4093;53.470;9.832;2023-12-20T08:09:35;25.20;;;4.67;;
8100;SDS011;4093;53.470;9.832;2023-12-20T08:12:03;15.60;;;5.07;;
8100;SDS011;4093;53.470;9.832;2023-12-20T08:14:31;17.37;;;4.43;;
8100;SDS011;4093;53.470;9.832;2023-12-20T08:16:59;19.27;;;5.43;;
8100;SDS011;4093;53.470;9.832;2023-12-20T08:19:28;16.30;;;4.57;;
8100;SDS011;4093;53.470;9.832;2023-12-20T08:21:56;19.80;;;4.60;;
8100;SDS011;4093;53.470;9.832;2023-12-20T08:24:23;20.40;;;4.87;;
8100;SDS011;4093;53.470;9.832;2023-12-20T08:26:51;14.77;;;4.43;;
8100;SDS011;4093;53.470;9.832;2023-12-20T08:29:19;19.13;;;5.97;;
8100;SDS011;4093;53.470;9.832;2023-12-20T08:31:51;19.20;;;4.80;;
8100;SDS011;4093;53.470;9.832;2023-12-20T08:34:20;18.87;;;4.67;;
8100;SDS011;4093;53.470;9.832;2023-12-20T08:36:50;17.70;;;4.47;;
8100;SDS011;4093;53.470;9.832;2023-12-20T08:39:21;15.97;;;4.13;;
8100;SDS011;4093;53.470;9.832;2023-12-20T08:41:48;11.13;;;4.60;;
8100;SDS011;4093;53.470;9.832;2023-12-20T08:44:16;19.03;;;5.23;;
8100;SDS011;4093;53.470;9.832;2023-12-20T08:46:44;16.37;;;4.93;;
8100;SDS011;4093;53.470;9.832;2023-12-20T08:49:11;17.90;;;4.77;;
8100;SDS011;4093;53.470;9.832;2023-12-20T08:51:39;19.60;;;4.87;;
8100;SDS011;4093;53.470;9.832;2023-12-20T08:54:09;14.63;;;4.40;;
8100;SDS011;4093;53.470;9.832;2023-12-20T08:56:36;15.53;;;4.50;;
8100;SDS011;4093;53.470;9.832;2023-12-20T08:59:04;15.83;;;4.10;;
8100;SDS011;4093;53.470;9.832;2023-12-20T09:01:32;16.03;;;4.10;;
8100;SDS011;4093;53.470;9.832;2023-12-20T09:04:00;13.00;;;4.10;;
8100;SDS011;4093;53.470;9.832;2023-12-20T09:06:27;14.67;;;3.47;;
8100;SDS011;4093;53.470;9.832;2023-12-20T09:08:55;10.63;;;3.17;;
8100;SDS011;4093;53.470;9.832;2023-12-20T09:11:24;9.17;;;2.90;;
8100;SDS011;4093;53.470;9.832;2023-12-20T09:13:52;11.20;;;2.30;;
8100;SDS011;4093;53.470;9.832;2023-12-20T09:16:20;4.73;;;2.10;;
8100;SDS011;4093;53.470;9.832;2023-12-20T09:18:48;8.23;;;2.57;;
8100;SDS011;4093;53.470;9.832;2023-12-20T09:21:16;7.67;;;2.70;;
8100;SDS011;4093;53.470;9.832;2023-12-20T09:23:44;10.60;;;2.50;;
8100;SDS011;4093;53.470;9.832;2023-12-20T09:26:12;5.43;;;2.20;;
8100;SDS011;4093;53.470;9.832;2023-12-20T09:28:41;6.13;;;2.10;;
8100;SDS011;4093;53.470;9.832;2023-12-20T09:31:09;7.90;;;2.30;;
8100;SDS011;4093;53.470;9.832;2023-12-20T09:33:36;2.57;;;1.70;;
8100;SDS011;4093;53.470;9.832;2023-12-20T09:36:05;3.83;;;2.13;;
8100;SDS011;4093;53.470;9.832;2023-12-20T09:38:33;5.20;;;1.67;;
8100;SDS011;4093;53.470;9.832;2023-12-20T09:41:00;2.27;;;1.60;;
8100;SDS011;4093;53.470;9.832;2023-12-20T09:43:30;1.87;;;1.60;;
8100;SDS011;4093;53.470;9.832;2023-12-20T09:46:05;2.53;;;1.67;;
8100;SDS011;4093;53.470;9.832;2023-12-20T09:48:34;3.90;;;1.90;;
8100;SDS011;4093;53.470;9.832;2023-12-20T09:51:03;5.87;;;1.70;;
8100;SDS011;4093;53.470;9.832;2023-12-20T09:53:31;4.70;;;1.93;;
8100;SDS011;4093;53.470;9.832;2023-12-20T09:56:05;5.07;;;2.00;;
8100;SDS011;4093;53.470;9.832;2023-12-20T09:58:35;3.23;;;1.60;;
8100;SDS011;4093;53.470;9.832;2023-12-20T10:01:05;3.80;;;1.90;;
8100;SDS011;4093;53.470;9.832;2023-12-20T10:03:34;3.70;;;1.67;;
8100;SDS011;4093;53.470;9.832;2023-12-20T10:06:02;1.60;;;1.50;;
8100;SDS011;4093;53.470;9.832;2023-12-20T10:08:30;2.13;;;1.43;;
8100;SDS011;4093;53.470;9.832;2023-12-20T10:10:58;3.53;;;1.73;;
8100;SDS011;4093;53.470;9.832;2023-12-20T10:13:29;5.03;;;1.70;;
8100;SDS011;4093;53.470;9.832;2023-12-20T10:15:56;4.13;;;1.50;;
8100;SDS011;4093;53.470;9.832;2023-12-20T10:18:26;2.00;;;1.53;;
8100;SDS011;4093;53.470;9.832;2023-12-20T10:21:05;1.63;;;1.40;;
8100;SDS011;4093;53.470;9.832;2023-12-20T10:23:33;2.37;;;1.73;;
8100;SDS011;4093;53.470;9.832;2023-12-20T10:26:01;2.33;;;1.50;;
8100;SDS011;4093;53.470;9.832;2023-12-20T10:28:32;3.90;;;1.87;;
8100;SDS011;4093;53.470;9.832;2023-12-20T10:31:01;2.57;;;1.57;;
8100;SDS011;4093;53.470;9.832;2023-12-20T10:33:31;4.80;;;1.60;;
8100;SDS011;4093;53.470;9.832;2023-12-20T10:35:59;4.57;;;1.47;;
8100;SDS011;4093;53.470;9.832;2023-12-20T10:38:27;2.83;;;1.60;;
8100;SDS011;4093;53.470;9.832;2023-12-20T10:40:57;5.37;;;1.70;;
8100;SDS011;4093;53.470;9.832;2023-12-20T10:43:26;9.10;;;2.30;;
8100;SDS011;4093;53.470;9.832;2023-12-20T10:45:57;9.67;;;1.70;;
8100;SDS011;4093;53.470;9.832;2023-12-20T10:48:27;6.67;;;1.70;;
8100;SDS011;4093;53.470;9.832;2023-12-20T10:50:59;5.10;;;2.40;;
8100;SDS011;4093;53.470;9.832;2023-12-20T10:53:28;4.07;;;1.93;;
8100;SDS011;4093;53.470;9.832;2023-12-20T10:55:56;3.30;;;1.53;;
8100;SDS011;4093;53.470;9.832;2023-12-20T10:58:27;5.80;;;1.90;;
8100;SDS011;4093;53.470;9.832;2023-12-20T11:00:59;5.90;;;1.90;;
8100;SDS011;4093;53.470;9.832;2023-12-20T11:03:29;6.53;;;1.80;;
8100;SDS011;4093;53.470;9.832;2023-12-20T11:06:05;5.40;;;2.10;;
8100;SDS011;4093;53.470;9.832;2023-12-20T11:08:39;9.23;;;2.10;;
8100;SDS011;4093;53.470;9.832;2023-12-20T11:11:14;5.17;;;2.40;;
8100;SDS011;4093;53.470;9.832;2023-12-20T11:13:53;5.97;;;2.20;;
8100;SDS011;4093;53.470;9.832;2023-12-20T11:16:24;8.43;;;2.40;;
8100;SDS011;4093;53.470;9.832;2023-12-20T11:19:04;10.40;;;2.67;;
8100;SDS011;4093;53.470;9.832;2023-12-20T11:21:33;8.47;;;2.23;;
8100;SDS011;4093;53.470;9.832;2023-12-20T11:24:01;8.40;;;2.23;;
8100;SDS011;4093;53.470;9.832;2023-12-20T11:26:31;9.83;;;2.57;;
8100;SDS011;4093;53.470;9.832;2023-12-20T11:31:56;10.87;;;2.90;;
8100;SDS011;4093;53.470;9.832;2023-12-20T11:34:26;9.07;;;2.60;;
8100;SDS011;4093;53.470;9.832;2023-12-20T11:37:02;10.33;;;2.83;;
8100;SDS011;4093;53.470;9.832;2023-12-20T11:39:30;12.33;;;2.50;;
8100;SDS011;4093;53.470;9.832;2023-12-20T11:42:04;14.83;;;2.73;;
8100;SDS011;4093;53.470;9.832;2023-12-20T11:44:32;8.07;;;2.23;;
8100;SDS011;4093;53.470;9.832;2023-12-20T11:47:00;13.77;;;2.93;;
8100;SDS011;4093;53.470;9.832;2023-12-20T11:49:28;9.60;;;2.83;;
8100;SDS011;4093;53.470;9.832;2023-12-20T11:51:57;10.20;;;3.17;;
8100;SDS011;4093;53.470;9.832;2023-12-20T11:54:29;7.73;;;2.70;;
8100;SDS011;4093;53.470;9.832;2023-12-20T11:56:57;6.73;;;2.33;;
8100;SDS011;4093;53.470;9.832;2023-12-20T11:59:25;9.97;;;2.47;;
8100;SDS011;4093;53.470;9.832;2023-12-20T12:01:53;7.13;;;2.70;;
8100;SDS011;4093;53.470;9.832;2023-12-20T12:04:23;6.97;;;2.33;;
8100;SDS011;4093;53.470;9.832;2023-12-20T12:06:50;8.13;;;3.30;;
8100;SDS011;4093;53.470;9.832;2023-12-20T12:09:18;9.43;;;3.43;;
8100;SDS011;4093;53.470;9.832;2023-12-20T12:11:47;9.47;;;2.70;;
8100;SDS011;4093;53.470;9.832;2023-12-20T12:14:15;7.27;;;2.70;;
8100;SDS011;4093;53.470;9.832;2023-12-20T12:16:43;14.33;;;3.07;;
8100;SDS011;4093;53.470;9.832;2023-12-20T12:19:19;8.67;;;3.20;;
8100;SDS011;4093;53.470;9.832;2023-12-20T12:21:48;11.07;;;2.60;;
8100;SDS011;4093;53.470;9.832;2023-12-20T12:24:19;11.20;;;3.17;;
8100;SDS011;4093;53.470;9.832;2023-12-20T12:26:51;6.80;;;2.30;;
8100;SDS011;4093;53.470;9.832;2023-12-20T12:29:18;8.67;;;2.43;;
8100;SDS011;4093;53.470;9.832;2023-12-20T12:31:46;4.93;;;2.23;;
8100;SDS011;4093;53.470;9.832;2023-12-20T12:34:14;11.00;;;2.70;;
8100;SDS011;4093;53.470;9.832;2023-12-20T12:36:42;10.30;;;2.77;;
8100;SDS011;4093;53.470;9.832;2023-12-20T12:39:13;5.60;;;2.40;;
8100;SDS011;4093;53.470;9.832;2023-12-20T12:41:41;9.83;;;3.10;;
8100;SDS011;4093;53.470;9.832;2023-12-20T12:44:10;10.93;;;2.80;;
8100;SDS011;4093;53.470;9.832;2023-12-20T12:46:43;8.13;;;2.63;;
8100;SDS011;4093;53.470;9.832;2023-12-20T12:49:11;8.93;;;2.87;;
8100;SDS011;4093;53.470;9.832;2023-12-20T12:51:39;9.87;;;2.90;;
8100;SDS011;4093;53.470;9.832;2023-12-20T12:54:07;7.17;;;2.80;;
8100;SDS011;4093;53.470;9.832;2023-12-20T12:56:36;7.37;;;2.70;;
8100;SDS011;4093;53.470;9.832;2023-12-20T12:59:04;11.73;;;3.27;;
8100;SDS011;4093;53.470;9.832;2023-12-20T13:01:33;7.20;;;3.03;;
8100;SDS011;4093;53.470;9.832;2023-12-20T13:04:01;9.13;;;3.20;;
8100;SDS011;4093;53.470;9.832;2023-12-20T13:06:32;9.07;;;3.30;;
8100;SDS011;4093;53.470;9.832;2023-12-20T13:09:00;14.20;;;2.87;;
8100;SDS011;4093;53.470;9.832;2023-12-20T13:11:28;10.33;;;2.80;;
8100;SDS011;4093;53.470;9.832;2023-12-20T13:13:57;11.43;;;3.10;;
8100;SDS011;4093;53.470;9.832;2023-12-20T13:16:25;13.10;;;3.67;;
8100;SDS011;4093;53.470;9.832;2023-12-20T13:18:55;11.33;;;2.90;;
8100;SDS011;4093;53.470;9.832;2023-12-20T13:21:22;11.07;;;3.27;;
8100;SDS011;4093;53.470;9.832;2023-12-20T13:23:50;12.90;;;3.57;;
8100;SDS011;4093;53.470;9.832;2023-12-20T13:26:18;16.13;;;4.20;;
8100;SDS011;4093;53.470;9.832;2023-12-20T13:28:46;17.17;;;5.10;;
8100;SDS011;4093;53.470;9.832;2023-12-20T13:31:13;14.47;;;4.13;;
8100;SDS011;4093;53.470;9.832;2023-12-20T13:33:41;18.70;;;4.17;;
8100;SDS011;4093;53.470;9.832;2023-12-20T13:36:10;13.13;;;4.50;;
8100;SDS011;4093;53.470;9.832;2023-12-20T13:38:38;13.07;;;3.87;;
8100;SDS011;4093;53.470;9.832;2023-12-20T13:41:06;14.13;;;4.17;;
8100;SDS011;4093;53.470;9.832;2023-12-20T13:43:34;15.33;;;4.00;;
8100;SDS011;4093;53.470;9.832;2023-12-20T13:46:02;22.63;;;4.67;;
8100;SDS011;4093;53.470;9.832;2023-12-20T13:48:30;11.67;;;4.20;;
8100;SDS011;4093;53.470;9.832;2023-12-20T13:50:57;18.03;;;3.90;;
8100;SDS011;4093;53.470;9.832;2023-12-20T13:53:27;13.23;;;4.20;;
8100;SDS011;4093;53.470;9.832;2023-12-20T13:55:55;12.17;;;3.83;;
8100;SDS011;4093;53.470;9.832;2023-12-20T13:58:24;15.13;;;4.37;;
8100;SDS011;4093;53.470;9.832;2023-12-20T14:00:53;17.17;;;5.17;;
8100;SDS011;4093;53.470;9.832;2023-12-20T14:03:21;16.77;;;4.57;;
8100;SDS011;4093;53.470;9.832;2023-12-20T14:05:49;21.53;;;5.13;;
8100;SDS011;4093;53.470;9.832;2023-12-20T14:08:17;17.67;;;4.90;;
8100;SDS011;4093;53.470;9.832;2023-12-20T14:10:46;14.47;;;4.37;;
8100;SDS011;4093;53.470;9.832;2023-12-20T14:13:13;16.33;;;4.60;;
8100;SDS011;4093;53.470;9.832;2023-12-20T14:15:40;17.40;;;4.67;;
8100;SDS011;4093;53.470;9.832;2023-12-20T14:18:08;16.83;;;4.87;;
8100;SDS011;4093;53.470;9.832;2023-12-20T14:20:36;16.23;;;5.10;;
8100;SDS011;4093;53.470;9.832;2023-12-20T14:23:05;20.43;;;5.23;;
8100;SDS011;4093;53.470;9.832;2023-12-20T14:25:33;17.23;;;4.50;;
8100;SDS011;4093;53.470;9.832;2023-12-20T14:28:18;18.83;;;5.00;;
8100;SDS011;4093;53.470;9.832;2023-12-20T14:30:46;17.60;;;4.87;;
8100;SDS011;4093;53.470;9.832;2023-12-20T14:33:15;20.63;;;4.93;;
8100;SDS011;4093;53.470;9.832;2023-12-20T14:35:43;21.10;;;5.77;;
8100;SDS011;4093;53.470;9.832;2023-12-20T14:38:11;20.37;;;5.13;;
8100;SDS011;4093;53.470;9.832;2023-12-20T14:40:41;17.33;;;4.60;;
8100;SDS011;4093;53.470;9.832;2023-12-20T14:43:08;17.93;;;4.77;;
8100;SDS011;4093;53.470;9.832;2023-12-20T14:45:38;13.83;;;4.70;;
8100;SDS011;4093;53.470;9.832;2023-12-20T14:48:06;18.33;;;5.00;;
8100;SDS011;4093;53.470;9.832;2023-12-20T14:50:34;20.23;;;5.90;;
8100;SDS011;4093;53.470;9.832;2023-12-20T14:53:03;21.13;;;4.83;;
8100;SDS011;4093;53.470;9.832;2023-12-20T14:55:31;20.10;;;4.70;;
8100;SDS011;4093;53.470;9.832;2023-12-20T14:57:58;21.60;;;5.77;;
8100;SDS011;4093;53.470;9.832;2023-12-20T15:00:27;21.83;;;5.23;;
8100;SDS011;4093;53.470;9.832;2023-12-20T15:02:57;15.00;;;4.53;;
8100;SDS011;4093;53.470;9.832;2023-12-20T15:05:25;17.93;;;5.03;;
8100;SDS011;4093;53.470;9.832;2023-12-20T15:07:53;16.50;;;4.13;;
8100;SDS011;4093;53.470;9.832;2023-12-20T15:10:20;22.43;;;5.10;;
8100;SDS011;4093;53.470;9.832;2023-12-20T15:12:48;18.00;;;4.43;;
8100;SDS011;4093;53.470;9.832;2023-12-20T15:15:16;17.00;;;4.57;;
8100;SDS011;4093;53.470;9.832;2023-12-20T15:17:44;21.10;;;7.77;;